createdAt,value
2022-11-20T00:00:28.496Z,42.53
2022-11-20T00:01:28.448Z,44.76
2022-11-20T00:02:28.512Z,50.33
2022-11-20T00:03:28.445Z,47.79
2022-11-20T00:04:28.432Z,43.08
2022-11-20T00:05:28.431Z,44.16
2022-11-20T00:06:28.562Z,52.96
2022-11-20T00:07:28.470Z,48.90
2022-11-20T00:08:28.425Z,46.07
2022-11-20T00:09:28.434Z,42.93
2022-11-20T00:10:28.421Z,42.64
2022-11-20T00:11:28.406Z,42.92
2022-11-20T00:12:28.957Z,41.81
2022-11-20T00:13:28.391Z,41.92
2022-11-20T00:14:28.400Z,43.86
2022-11-20T00:15:28.365Z,53.75
2022-11-20T00:16:28.383Z,47.03
2022-11-20T00:17:28.374Z,42.50
2022-11-20T00:18:28.376Z,41.49
2022-11-20T00:19:28.356Z,41.87
2022-11-20T00:20:28.354Z,41.08
2022-11-20T00:21:28.332Z,40.81
2022-11-20T00:22:28.341Z,41.26
2022-11-20T00:23:28.326Z,41.62
2022-11-20T00:24:28.319Z,41.87
2022-11-20T00:25:28.317Z,42.77
2022-11-20T00:26:28.330Z,43.27
2022-11-20T00:27:28.292Z,42.51
2022-11-20T00:28:28.314Z,42.65
2022-11-20T00:29:28.271Z,42.39
2022-11-20T00:30:28.279Z,43.36
2022-11-20T00:31:28.274Z,45.36
2022-11-20T00:32:28.312Z,48.30
2022-11-20T00:33:28.265Z,42.45
2022-11-20T00:34:28.289Z,44.23
2022-11-20T00:35:28.234Z,46.62
2022-11-20T00:36:28.236Z,51.79
2022-11-20T00:37:28.347Z,51.62
2022-11-20T00:38:28.273Z,44.43
2022-11-20T00:39:28.216Z,46.13
2022-11-20T00:40:28.236Z,47.71
2022-11-20T00:41:28.203Z,42.50
2022-11-20T00:42:28.220Z,43.48
2022-11-20T00:43:28.202Z,42.87
2022-11-20T00:44:28.246Z,42.85
2022-11-20T00:45:28.184Z,42.10
2022-11-20T00:46:28.228Z,44.29
2022-11-20T00:47:28.162Z,44.23
2022-11-20T00:48:28.196Z,44.21
2022-11-20T00:49:28.160Z,42.98
2022-11-20T00:50:28.159Z,42.39
2022-11-20T00:51:28.167Z,42.51
2022-11-20T00:52:28.159Z,42.46
2022-11-20T00:53:28.150Z,41.54
2022-11-20T00:54:28.306Z,41.87
2022-11-20T00:55:28.135Z,42.25
2022-11-20T00:56:28.145Z,42.89
2022-11-20T00:57:28.157Z,42.95
2022-11-20T00:58:28.124Z,42.78
2022-11-20T00:59:28.107Z,42.58
2022-11-20T01:00:28.116Z,43.95
2022-11-20T01:01:28.929Z,42.83
2022-11-20T01:02:28.094Z,42.15
2022-11-20T01:03:28.091Z,43.06
2022-11-20T01:04:28.078Z,41.76
2022-11-20T01:05:28.087Z,42.90
2022-11-20T01:06:29.477Z,43.54
2022-11-20T01:07:28.803Z,43.67
2022-11-20T01:08:28.116Z,44.46
2022-11-20T01:09:28.053Z,46.18
2022-11-20T01:10:28.071Z,44.01
2022-11-20T01:11:28.057Z,45.01
2022-11-20T01:12:28.059Z,45.05
2022-11-20T01:13:28.033Z,44.40
2022-11-20T01:14:28.043Z,45.28
2022-11-20T01:15:28.016Z,44.39
2022-11-20T01:16:28.595Z,45.01
2022-11-20T01:17:49.010Z,43.75
2022-11-20T01:18:28.010Z,45.72
2022-11-20T01:19:27.999Z,44.84
2022-11-20T01:20:30.584Z,44.29
2022-11-20T01:21:27.988Z,42.90
2022-11-20T01:22:28.915Z,44.90
2022-11-20T01:23:28.167Z,44.79
2022-11-20T01:24:27.973Z,44.66
2022-11-20T01:25:27.967Z,42.93
2022-11-20T01:26:27.986Z,41.49
2022-11-20T01:27:27.979Z,42.73
2022-11-20T01:28:27.983Z,41.61
2022-11-20T01:29:28.689Z,44.07
2022-11-20T01:30:27.971Z,46.07
2022-11-20T01:31:27.940Z,46.19
2022-11-20T01:32:27.924Z,41.93
2022-11-20T01:33:27.927Z,44.41
2022-11-20T01:34:27.942Z,44.82
2022-11-20T01:35:27.903Z,44.57
2022-11-20T01:36:27.905Z,44.08
2022-11-20T01:37:27.908Z,42.71
2022-11-20T01:38:27.897Z,41.82
2022-11-20T01:39:27.970Z,42.42
2022-11-20T01:40:27.965Z,43.46
2022-11-20T01:41:27.887Z,42.71
2022-11-20T01:42:27.885Z,41.89
2022-11-20T01:43:27.884Z,42.18
2022-11-20T01:44:27.871Z,42.30
2022-11-20T01:45:27.968Z,41.92
2022-11-20T01:46:28.037Z,42.04
2022-11-20T01:47:27.859Z,42.89
2022-11-20T01:48:27.830Z,44.43
2022-11-20T01:49:27.841Z,43.66
2022-11-20T01:50:28.287Z,43.09
2022-11-20T01:51:27.819Z,42.80
2022-11-20T01:52:27.817Z,42.85
2022-11-20T01:53:27.834Z,43.33
2022-11-20T01:54:27.796Z,42.83
2022-11-20T01:55:28.250Z,41.84
2022-11-20T01:56:27.809Z,41.62
2022-11-20T01:57:27.804Z,41.61
2022-11-20T01:58:27.776Z,41.29
2022-11-20T01:59:27.794Z,41.39
2022-11-20T02:00:27.831Z,42.24
2022-11-20T02:01:27.962Z,43.15
2022-11-20T02:02:27.767Z,43.60
2022-11-20T02:03:27.760Z,42.48
2022-11-20T02:04:27.819Z,41.83
2022-11-20T02:05:27.760Z,41.61
2022-11-20T02:06:27.743Z,42.32
2022-11-20T02:07:27.822Z,41.87
2022-11-20T02:08:27.723Z,42.38
2022-11-20T02:09:27.733Z,41.68
2022-11-20T02:10:27.728Z,42.31
2022-11-20T02:11:27.717Z,41.62
2022-11-20T02:12:27.729Z,42.01
2022-11-20T02:13:27.719Z,41.99
2022-11-20T02:14:28.197Z,41.65
2022-11-20T02:15:30.420Z,42.39
2022-11-20T02:16:27.684Z,43.27
2022-11-20T02:17:27.688Z,41.67
2022-11-20T02:18:27.708Z,42.89
2022-11-20T02:19:27.676Z,43.27
2022-11-20T02:20:27.673Z,44.75
2022-11-20T02:21:27.674Z,44.53
2022-11-20T02:22:27.653Z,42.73
2022-11-20T02:23:27.667Z,42.45
2022-11-20T02:24:27.659Z,42.55
2022-11-20T02:25:27.646Z,42.67
2022-11-20T02:26:27.640Z,42.57
2022-11-20T02:27:27.650Z,43.12
2022-11-20T02:28:27.624Z,42.70
2022-11-20T02:29:27.629Z,42.42
2022-11-20T02:30:27.622Z,42.19
2022-11-20T02:31:29.951Z,41.66
2022-11-20T02:32:27.610Z,41.71
2022-11-20T02:33:27.622Z,41.39
2022-11-20T02:34:28.133Z,43.39
2022-11-20T02:35:27.601Z,43.95
2022-11-20T02:36:27.575Z,42.76
2022-11-20T02:37:27.589Z,42.23
2022-11-20T02:38:27.578Z,42.85
2022-11-20T02:39:27.633Z,43.03
2022-11-20T02:40:27.598Z,42.82
2022-11-20T02:41:27.590Z,44.64
2022-11-20T02:42:27.536Z,43.20
2022-11-20T02:43:27.546Z,43.96
2022-11-20T02:44:27.537Z,46.45
2022-11-20T02:45:27.552Z,48.49
2022-11-20T02:46:27.524Z,58.79
2022-11-20T02:47:27.548Z,53.67
2022-11-20T02:48:30.237Z,46.98
2022-11-20T02:49:28.512Z,44.76
2022-11-20T02:50:27.509Z,44.18
2022-11-20T02:51:27.506Z,44.74
2022-11-20T02:52:27.502Z,44.23
2022-11-20T02:53:27.527Z,44.79
2022-11-20T02:54:27.481Z,42.39
2022-11-20T02:55:27.496Z,43.19
2022-11-20T02:56:27.462Z,42.40
2022-11-20T02:57:27.471Z,42.46
2022-11-20T02:58:29.872Z,42.08
2022-11-20T02:59:27.481Z,42.35
2022-11-20T03:00:27.453Z,41.25
2022-11-20T03:01:27.565Z,42.52
2022-11-20T03:02:27.451Z,44.76
2022-11-20T03:03:27.445Z,44.67
2022-11-20T03:04:27.437Z,43.39
2022-11-20T03:05:27.521Z,43.27
2022-11-20T03:06:27.419Z,41.53
2022-11-20T03:07:27.473Z,41.99
2022-11-20T03:08:27.414Z,41.95
2022-11-20T03:09:27.417Z,42.18
2022-11-20T03:10:27.417Z,43.54
2022-11-20T03:11:27.404Z,45.68
2022-11-20T03:12:27.430Z,43.05
2022-11-20T03:13:27.403Z,41.66
2022-11-20T03:14:27.385Z,42.25
2022-11-20T03:15:27.383Z,41.50
2022-11-20T03:16:27.379Z,50.57
2022-11-20T03:17:27.383Z,42.54
2022-11-20T03:18:27.383Z,41.16
2022-11-20T03:19:27.350Z,40.78
2022-11-20T03:20:27.376Z,41.00
2022-11-20T03:21:27.364Z,41.69
2022-11-20T03:22:27.349Z,43.41
2022-11-20T03:23:27.363Z,41.59
2022-11-20T03:24:27.340Z,42.34
2022-11-20T03:25:27.326Z,43.00
2022-11-20T03:26:27.343Z,43.80
2022-11-20T03:27:27.327Z,43.91
2022-11-20T03:28:28.055Z,42.76
2022-11-20T03:29:27.358Z,42.44
2022-11-20T03:30:30.542Z,52.04
2022-11-20T03:31:27.296Z,49.58
2022-11-20T03:32:27.305Z,43.48
2022-11-20T03:33:27.291Z,47.81
2022-11-20T03:34:27.293Z,42.60
2022-11-20T03:35:27.301Z,42.15
2022-11-20T03:36:27.268Z,42.17
2022-11-20T03:37:27.260Z,42.70
2022-11-20T03:38:27.276Z,43.16
2022-11-20T03:39:27.244Z,43.24
2022-11-20T03:40:28.111Z,46.80
2022-11-20T03:41:27.250Z,47.02
2022-11-20T03:42:27.258Z,45.53
2022-11-20T03:43:27.240Z,43.64
2022-11-20T03:44:27.230Z,42.12
2022-11-20T03:45:27.215Z,41.32
2022-11-20T03:46:27.240Z,41.73
2022-11-20T03:47:27.233Z,42.37
2022-11-20T03:48:27.207Z,42.10
2022-11-20T03:49:27.937Z,42.17
2022-11-20T03:50:27.232Z,47.07
2022-11-20T03:51:27.192Z,45.51
2022-11-20T03:52:27.208Z,43.54
2022-11-20T03:53:27.190Z,43.34
2022-11-20T03:54:27.177Z,45.14
2022-11-20T03:55:27.665Z,45.16
2022-11-20T03:56:27.172Z,44.32
2022-11-20T03:57:27.173Z,44.68
2022-11-20T03:58:27.173Z,46.15
2022-11-20T03:59:27.140Z,47.73
2022-11-20T04:00:29.028Z,59.37
2022-11-20T04:01:28.162Z,44.45
2022-11-20T04:02:27.133Z,43.43
2022-11-20T04:03:27.153Z,43.84
2022-11-20T04:04:27.149Z,45.21
2022-11-20T04:05:27.116Z,44.92
2022-11-20T04:06:27.123Z,46.32
2022-11-20T04:07:27.391Z,45.24
2022-11-20T04:08:27.098Z,43.61
2022-11-20T04:09:27.086Z,42.96
2022-11-20T04:10:27.105Z,41.84
2022-11-20T04:11:27.095Z,41.58
2022-11-20T04:12:28.121Z,41.07
2022-11-20T04:13:27.128Z,41.90
2022-11-20T04:14:27.099Z,41.79
2022-11-20T04:15:27.061Z,43.31
2022-11-20T04:16:27.048Z,41.86
2022-11-20T04:17:27.048Z,43.62
2022-11-20T04:18:27.049Z,42.73
2022-11-20T04:19:27.048Z,41.27
2022-11-20T04:20:27.049Z,42.26
2022-11-20T04:21:27.077Z,40.84
2022-11-20T04:22:27.021Z,43.69
2022-11-20T04:23:28.804Z,42.35
2022-11-20T04:24:27.019Z,40.86
2022-11-20T04:25:26.997Z,40.72
2022-11-20T04:26:27.004Z,41.43
2022-11-20T04:27:27.350Z,43.60
2022-11-20T04:28:26.988Z,42.34
2022-11-20T04:29:26.977Z,42.24
2022-11-20T04:30:26.974Z,41.48
2022-11-20T04:31:26.969Z,43.44
2022-11-20T04:32:26.959Z,41.42
2022-11-20T04:33:28.989Z,42.92
2022-11-20T04:34:27.954Z,42.78
2022-11-20T04:35:26.938Z,43.30
2022-11-20T04:36:26.920Z,42.87
2022-11-20T04:37:27.091Z,43.39
2022-11-20T04:38:26.922Z,42.70
2022-11-20T04:39:26.929Z,42.27
2022-11-20T04:40:26.918Z,43.20
2022-11-20T04:41:26.917Z,43.06
2022-11-20T04:42:26.894Z,42.05
2022-11-20T04:43:26.906Z,42.62
2022-11-20T04:44:26.868Z,41.00
2022-11-20T04:45:26.885Z,40.99
2022-11-20T04:46:26.860Z,41.29
2022-11-20T04:47:26.872Z,43.11
2022-11-20T04:48:26.859Z,41.08
2022-11-20T04:49:26.904Z,45.08
2022-11-20T04:50:26.862Z,43.36
2022-11-20T04:51:27.420Z,45.85
2022-11-20T04:52:26.941Z,42.14
2022-11-20T04:53:26.901Z,43.23
2022-11-20T04:54:26.815Z,42.30
2022-11-20T04:55:26.811Z,43.00
2022-11-20T04:56:26.791Z,45.17
2022-11-20T04:57:26.812Z,42.80
2022-11-20T04:58:26.796Z,43.98
2022-11-20T04:59:26.797Z,42.97
2022-11-20T05:00:26.778Z,42.91
2022-11-20T05:01:26.923Z,43.07
2022-11-20T05:02:26.792Z,41.09
2022-11-20T05:03:26.751Z,42.42
2022-11-20T05:04:26.738Z,41.68
2022-11-20T05:05:26.755Z,41.60
2022-11-20T05:06:26.749Z,42.73
2022-11-20T05:07:26.785Z,44.23
2022-11-20T05:08:26.718Z,44.80
2022-11-20T05:09:26.727Z,42.50
2022-11-20T05:10:26.722Z,42.07
2022-11-20T05:11:26.721Z,42.26
2022-11-20T05:12:26.707Z,42.81
2022-11-20T05:13:26.689Z,44.14
2022-11-20T05:14:26.701Z,42.93
2022-11-20T05:15:26.673Z,42.88
2022-11-20T05:16:26.661Z,42.69
2022-11-20T05:17:26.674Z,42.12
2022-11-20T05:18:26.650Z,42.32
2022-11-20T05:19:26.661Z,42.47
2022-11-20T05:20:26.649Z,41.54
2022-11-20T05:21:27.027Z,42.21
2022-11-20T05:22:26.635Z,43.10
2022-11-20T05:23:26.625Z,42.65
2022-11-20T05:24:26.612Z,41.80
2022-11-20T05:25:26.643Z,41.40
2022-11-20T05:26:26.619Z,42.67
2022-11-20T05:27:26.614Z,42.97
2022-11-20T05:28:26.591Z,42.90
2022-11-20T05:29:26.591Z,41.87
2022-11-20T05:30:26.580Z,41.37
2022-11-20T05:31:27.986Z,41.59
2022-11-20T05:32:26.571Z,42.07
2022-11-20T05:33:26.570Z,41.42
2022-11-20T05:34:26.558Z,41.43
2022-11-20T05:35:26.565Z,41.65
2022-11-20T05:36:26.540Z,47.73
2022-11-20T05:37:26.534Z,43.81
2022-11-20T05:38:26.529Z,41.91
2022-11-20T05:39:26.707Z,41.52
2022-11-20T05:40:26.516Z,41.55
2022-11-20T05:41:26.513Z,41.62
2022-11-20T05:42:26.500Z,41.01
2022-11-20T05:43:26.559Z,41.84
2022-11-20T05:44:26.474Z,42.67
2022-11-20T05:45:26.502Z,41.86
2022-11-20T05:46:29.103Z,41.63
2022-11-20T05:47:26.479Z,41.41
2022-11-20T05:48:26.455Z,41.34
2022-11-20T05:49:26.459Z,41.02
2022-11-20T05:50:26.431Z,41.03
2022-11-20T05:51:26.460Z,41.00
2022-11-20T05:52:26.430Z,41.21
2022-11-20T05:53:27.794Z,40.91
2022-11-20T05:54:26.417Z,40.97
2022-11-20T05:55:26.413Z,41.70
2022-11-20T05:56:26.396Z,41.62
2022-11-20T05:57:26.418Z,41.08
2022-11-20T05:58:27.323Z,41.16
2022-11-20T05:59:26.411Z,40.63
2022-11-20T06:00:26.390Z,40.89
2022-11-20T06:01:26.399Z,41.70
2022-11-20T06:02:26.402Z,41.97
2022-11-20T06:03:26.760Z,41.72
2022-11-20T06:04:26.353Z,41.71
2022-11-20T06:05:26.373Z,41.80
2022-11-20T06:06:26.363Z,41.76
2022-11-20T06:07:26.431Z,50.20
2022-11-20T06:08:26.358Z,40.59
2022-11-20T06:09:26.333Z,40.81
2022-11-20T06:10:26.336Z,41.20
2022-11-20T06:11:26.342Z,41.04
2022-11-20T06:12:26.323Z,41.91
2022-11-20T06:13:26.306Z,40.93
2022-11-20T06:14:26.301Z,41.15
2022-11-20T06:15:26.296Z,40.85
2022-11-20T06:16:26.316Z,40.93
2022-11-20T06:17:26.298Z,40.73
2022-11-20T06:18:26.266Z,43.77
2022-11-20T06:19:26.285Z,41.68
2022-11-20T06:20:26.269Z,40.57
2022-11-20T06:21:26.249Z,40.66
2022-11-20T06:22:26.265Z,41.17
2022-11-20T06:23:26.243Z,41.17
2022-11-20T06:24:26.227Z,41.46
2022-11-20T06:25:26.243Z,42.41
2022-11-20T06:26:26.211Z,41.40
2022-11-20T06:27:26.232Z,41.73
2022-11-20T06:28:26.215Z,43.09
2022-11-20T06:29:31.322Z,42.91
2022-11-20T06:30:27.203Z,50.61
2022-11-20T06:31:26.825Z,43.18
2022-11-20T06:32:26.169Z,43.87
2022-11-20T06:33:26.190Z,44.08
2022-11-20T06:34:26.157Z,43.39
2022-11-20T06:35:26.225Z,42.90
2022-11-20T06:36:26.187Z,42.86
2022-11-20T06:37:26.167Z,42.97
2022-11-20T06:38:26.142Z,42.58
2022-11-20T06:39:26.149Z,43.13
2022-11-20T06:40:26.131Z,43.02
2022-11-20T06:41:26.261Z,42.18
2022-11-20T06:42:26.122Z,42.77
2022-11-20T06:43:26.111Z,41.96
2022-11-20T06:44:26.168Z,44.07
2022-11-20T06:45:26.112Z,44.63
2022-11-20T06:46:26.103Z,47.51
2022-11-20T06:47:26.107Z,43.23
2022-11-20T06:48:26.087Z,42.19
2022-11-20T06:49:26.074Z,42.72
2022-11-20T06:50:26.072Z,42.98
2022-11-20T06:51:26.067Z,42.34
2022-11-20T06:52:26.051Z,43.18
2022-11-20T06:53:26.075Z,42.37
2022-11-20T06:54:26.036Z,41.72
2022-11-20T06:55:26.058Z,42.09
2022-11-20T06:56:26.049Z,41.75
2022-11-20T06:57:26.028Z,42.15
2022-11-20T06:58:26.015Z,41.79
2022-11-20T06:59:26.024Z,47.49
2022-11-20T07:00:26.014Z,42.22
2022-11-20T07:01:26.049Z,42.46
2022-11-20T07:02:26.002Z,42.90
2022-11-20T07:03:26.001Z,43.45
2022-11-20T07:04:26.258Z,43.55
2022-11-20T07:05:26.033Z,47.12
2022-11-20T07:06:25.968Z,52.47
2022-11-20T07:07:26.024Z,43.26
2022-11-20T07:08:25.968Z,43.50
2022-11-20T07:09:26.153Z,43.14
2022-11-20T07:10:25.949Z,42.37
2022-11-20T07:11:25.943Z,48.67
2022-11-20T07:12:25.939Z,51.60
2022-11-20T07:13:25.936Z,43.41
2022-11-20T07:14:25.928Z,42.56
2022-11-20T07:15:26.089Z,42.32
2022-11-20T07:16:25.895Z,42.72
2022-11-20T07:17:25.944Z,43.05
2022-11-20T07:18:25.997Z,42.91
2022-11-20T07:19:26.090Z,44.82
2022-11-20T07:20:25.892Z,43.93
2022-11-20T07:21:25.877Z,44.99
2022-11-20T07:22:25.887Z,42.20
2022-11-20T07:23:25.865Z,41.69
2022-11-20T07:24:25.863Z,41.86
2022-11-20T07:25:25.872Z,42.23
2022-11-20T07:26:25.881Z,42.41
2022-11-20T07:27:27.010Z,41.56
2022-11-20T07:28:25.875Z,41.67
2022-11-20T07:29:25.834Z,41.80
2022-11-20T07:30:25.836Z,41.63
2022-11-20T07:31:26.034Z,41.74
2022-11-20T07:32:25.826Z,42.38
2022-11-20T07:33:25.826Z,46.95
2022-11-20T07:34:25.814Z,44.83
2022-11-20T07:35:25.787Z,45.43
2022-11-20T07:36:25.811Z,41.81
2022-11-20T07:37:25.798Z,41.82
2022-11-20T07:38:25.783Z,41.85
2022-11-20T07:39:25.784Z,41.92
2022-11-20T07:40:25.751Z,41.89
2022-11-20T07:41:25.823Z,41.97
2022-11-20T07:42:25.757Z,41.79
2022-11-20T07:43:25.744Z,42.48
2022-11-20T07:44:25.763Z,42.77
2022-11-20T07:45:25.751Z,43.33
2022-11-20T07:46:25.721Z,43.40
2022-11-20T07:47:26.220Z,42.14
2022-11-20T07:48:25.719Z,41.95
2022-11-20T07:49:25.731Z,41.55
2022-11-20T07:50:26.403Z,41.58
2022-11-20T07:51:25.722Z,46.89
2022-11-20T07:52:25.692Z,44.29
2022-11-20T07:53:25.714Z,41.64
2022-11-20T07:54:25.675Z,41.66
2022-11-20T07:55:25.687Z,41.47
2022-11-20T07:56:26.237Z,41.94
2022-11-20T07:57:28.493Z,41.82
2022-11-20T07:58:25.680Z,42.26
2022-11-20T07:59:25.680Z,42.66
2022-11-20T08:00:25.738Z,42.62
2022-11-20T08:01:25.774Z,42.42
2022-11-20T08:02:25.654Z,42.48
2022-11-20T08:03:25.881Z,42.38
2022-11-20T08:04:25.619Z,42.49
2022-11-20T08:05:25.647Z,42.68
2022-11-20T08:06:25.608Z,42.46
2022-11-20T08:07:25.733Z,42.41
2022-11-20T08:08:25.616Z,42.46
2022-11-20T08:09:25.603Z,41.80
2022-11-20T08:10:25.725Z,42.10
2022-11-20T08:11:25.667Z,43.12
2022-11-20T08:12:25.733Z,44.83
2022-11-20T08:13:26.222Z,42.12
2022-11-20T08:14:25.568Z,42.17
2022-11-20T08:15:25.574Z,49.54
2022-11-20T08:16:25.570Z,48.27
2022-11-20T08:17:25.607Z,44.72
2022-11-20T08:18:33.259Z,41.92
2022-11-20T08:19:27.087Z,42.48
2022-11-20T08:20:25.567Z,42.49
2022-11-20T08:21:25.543Z,46.81
2022-11-20T08:22:25.538Z,46.95
2022-11-20T08:23:26.005Z,45.42
2022-11-20T08:24:25.511Z,45.40
2022-11-20T08:25:25.539Z,47.91
2022-11-20T08:26:25.498Z,46.27
2022-11-20T08:27:25.508Z,45.65
2022-11-20T08:28:25.601Z,45.57
2022-11-20T08:29:25.496Z,48.06
2022-11-20T08:30:25.504Z,47.38
2022-11-20T08:31:25.503Z,42.89
2022-11-20T08:32:25.469Z,42.95
2022-11-20T08:33:25.483Z,43.24
2022-11-20T08:34:25.484Z,44.08
2022-11-20T08:35:25.510Z,43.80
2022-11-20T08:36:25.705Z,42.84
2022-11-20T08:37:25.502Z,42.70
2022-11-20T08:38:25.449Z,43.44
2022-11-20T08:39:25.465Z,43.13
2022-11-20T08:40:25.423Z,42.34
2022-11-20T08:41:25.435Z,43.32
2022-11-20T08:42:25.414Z,43.02
2022-11-20T08:43:25.411Z,43.04
2022-11-20T08:44:25.526Z,43.85
2022-11-20T08:45:29.620Z,42.99
2022-11-20T08:46:26.417Z,43.23
2022-11-20T08:47:25.429Z,43.15
2022-11-20T08:48:25.417Z,43.52
2022-11-20T08:49:25.390Z,43.41
2022-11-20T08:50:25.388Z,43.94
2022-11-20T08:51:25.644Z,43.52
2022-11-20T08:52:25.351Z,43.35
2022-11-20T08:53:25.367Z,45.04
2022-11-20T08:54:25.368Z,43.60
2022-11-20T08:55:25.346Z,44.06
2022-11-20T08:56:25.340Z,43.40
2022-11-20T08:57:25.373Z,43.91
2022-11-20T08:58:25.330Z,43.78
2022-11-20T08:59:50.958Z,43.75
2022-11-20T09:00:26.314Z,44.34
2022-11-20T09:01:25.479Z,43.03
2022-11-20T09:02:25.304Z,42.96
2022-11-20T09:03:29.944Z,43.93
2022-11-20T09:04:26.557Z,43.57
2022-11-20T09:05:25.338Z,43.85
2022-11-20T09:06:25.268Z,45.83
2022-11-20T09:07:25.850Z,45.34
2022-11-20T09:08:25.275Z,48.24
2022-11-20T09:09:25.568Z,45.41
2022-11-20T09:10:25.434Z,50.93
2022-11-20T09:11:25.267Z,43.57
2022-11-20T09:12:25.268Z,43.42
2022-11-20T09:13:25.265Z,43.81
2022-11-20T09:14:25.233Z,44.15
2022-11-20T09:15:25.223Z,43.81
2022-11-20T09:16:25.226Z,43.39
2022-11-20T09:17:25.219Z,43.27
2022-11-20T09:18:25.255Z,43.70
2022-11-20T09:19:41.067Z,43.41
2022-11-20T09:20:26.182Z,43.01
2022-11-20T09:21:25.216Z,43.39
2022-11-20T09:22:25.236Z,43.80
2022-11-20T09:23:25.186Z,43.04
2022-11-20T09:24:25.160Z,45.93
2022-11-20T09:25:25.220Z,43.95
2022-11-20T09:26:25.145Z,43.65
2022-11-20T09:27:25.155Z,44.41
2022-11-20T09:28:25.142Z,47.51
2022-11-20T09:29:25.154Z,43.33
2022-11-20T09:30:25.129Z,43.14
2022-11-20T09:31:25.142Z,43.13
2022-11-20T09:32:25.105Z,50.15
2022-11-20T09:33:25.284Z,45.57
2022-11-20T09:34:25.106Z,43.96
2022-11-20T09:35:25.102Z,43.16
2022-11-20T09:36:25.109Z,43.11
2022-11-20T09:37:25.079Z,43.16
2022-11-20T09:38:25.096Z,43.25
2022-11-20T09:39:25.116Z,43.34
2022-11-20T09:40:25.055Z,43.45
2022-11-20T09:41:25.062Z,51.17
2022-11-20T09:42:25.033Z,44.03
2022-11-20T09:43:25.035Z,43.07
2022-11-20T09:44:25.039Z,43.35
2022-11-20T09:45:26.594Z,43.09
2022-11-20T09:46:25.022Z,43.75
2022-11-20T09:47:25.039Z,43.78
2022-11-20T09:48:25.007Z,45.98
2022-11-20T09:49:30.704Z,43.20
2022-11-20T09:50:26.108Z,43.35
2022-11-20T09:51:24.992Z,43.18
2022-11-20T09:52:24.982Z,43.65
2022-11-20T09:53:24.991Z,43.29
2022-11-20T09:54:25.027Z,43.11
2022-11-20T09:55:24.958Z,43.17
2022-11-20T09:56:24.947Z,43.02
2022-11-20T09:57:24.966Z,43.26
2022-11-20T09:58:24.936Z,43.19
2022-11-20T09:59:25.742Z,43.30
2022-11-20T10:00:24.914Z,43.58
2022-11-20T10:01:25.196Z,48.94
2022-11-20T10:02:24.923Z,51.15
2022-11-20T10:03:24.912Z,46.51
2022-11-20T10:04:24.896Z,46.17
2022-11-20T10:05:24.882Z,46.76
2022-11-20T10:06:24.884Z,45.16
2022-11-20T10:07:33.097Z,43.40
2022-11-20T10:08:25.856Z,43.43
2022-11-20T10:09:25.021Z,44.18
2022-11-20T10:10:24.859Z,47.76
2022-11-20T10:11:24.860Z,43.38
2022-11-20T10:12:24.876Z,43.22
2022-11-20T10:13:24.850Z,43.28
2022-11-20T10:14:24.811Z,44.38
2022-11-20T10:15:24.818Z,44.46
2022-11-20T10:16:24.810Z,45.42
2022-11-20T10:17:24.802Z,44.55
2022-11-20T10:18:24.825Z,48.28
2022-11-20T10:19:24.885Z,43.23
2022-11-20T10:20:24.771Z,43.59
2022-11-20T10:21:24.795Z,43.93
2022-11-20T10:22:24.765Z,46.50
2022-11-20T10:23:26.104Z,55.21
2022-11-20T10:24:24.770Z,52.91
2022-11-20T10:25:24.788Z,46.90
2022-11-20T10:26:24.739Z,46.24
2022-11-20T10:27:24.731Z,48.04
2022-11-20T10:28:24.744Z,47.93
2022-11-20T10:29:25.003Z,46.49
2022-11-20T10:30:24.766Z,47.65
2022-11-20T10:31:24.753Z,58.55
2022-11-20T10:32:24.714Z,67.90
2022-11-20T10:33:27.109Z,50.67
2022-11-20T10:34:24.674Z,51.77
2022-11-20T10:35:24.682Z,45.74
2022-11-20T10:36:24.675Z,46.66
2022-11-20T10:37:24.679Z,48.96
2022-11-20T10:38:24.670Z,44.84
2022-11-20T10:39:25.109Z,44.89
2022-11-20T10:40:24.653Z,44.76
2022-11-20T10:41:24.621Z,44.41
2022-11-20T10:42:24.699Z,45.06
2022-11-20T10:43:24.621Z,45.26
2022-11-20T10:44:24.612Z,45.02
2022-11-20T10:45:24.612Z,44.99
2022-11-20T10:46:24.608Z,45.46
2022-11-20T10:47:24.594Z,45.31
2022-11-20T10:48:24.592Z,46.05
2022-11-20T10:49:25.258Z,46.01
2022-11-20T10:50:24.572Z,45.36
2022-11-20T10:51:25.024Z,45.21
2022-11-20T10:52:24.571Z,46.59
2022-11-20T10:53:24.558Z,47.46
2022-11-20T10:54:24.561Z,45.42
2022-11-20T10:55:24.542Z,46.10
2022-11-20T10:56:24.979Z,45.95
2022-11-20T10:57:24.528Z,45.42
2022-11-20T10:58:27.097Z,45.02
2022-11-20T10:59:24.804Z,45.15
2022-11-20T11:00:24.548Z,50.56
2022-11-20T11:01:24.704Z,60.19
2022-11-20T11:02:24.493Z,59.34
2022-11-20T11:03:24.489Z,48.33
2022-11-20T11:04:24.519Z,47.50
2022-11-20T11:05:24.496Z,46.99
2022-11-20T11:06:24.836Z,49.27
2022-11-20T11:07:24.536Z,47.17
2022-11-20T11:08:24.468Z,45.83
2022-11-20T11:09:24.710Z,46.33
2022-11-20T11:10:24.434Z,46.51
2022-11-20T11:11:24.572Z,50.60
2022-11-20T11:12:24.433Z,45.44
2022-11-20T11:13:24.413Z,45.27
2022-11-20T11:14:24.406Z,45.47
2022-11-20T11:15:24.419Z,45.97
2022-11-20T11:16:24.832Z,45.64
2022-11-20T11:17:24.395Z,45.08
2022-11-20T11:18:24.462Z,45.01
2022-11-20T11:19:24.702Z,44.90
2022-11-20T11:20:24.370Z,45.22
2022-11-20T11:21:24.554Z,45.12
2022-11-20T11:22:24.346Z,45.10
2022-11-20T11:23:24.434Z,45.43
2022-11-20T11:24:41.545Z,45.57
2022-11-20T11:25:25.356Z,45.23
2022-11-20T11:26:24.350Z,45.76
2022-11-20T11:27:24.400Z,45.45
2022-11-20T11:28:24.351Z,45.07
2022-11-20T11:29:24.714Z,47.28
2022-11-20T11:30:24.313Z,45.40
2022-11-20T11:31:24.298Z,45.38
2022-11-20T11:32:24.312Z,45.83
2022-11-20T11:33:24.321Z,47.18
2022-11-20T11:34:24.287Z,46.01
2022-11-20T11:35:24.272Z,45.78
2022-11-20T11:36:24.261Z,45.38
2022-11-20T11:37:24.269Z,45.50
2022-11-20T11:38:24.268Z,45.20
2022-11-20T11:39:24.760Z,44.51
2022-11-20T11:40:25.241Z,44.27
2022-11-20T11:41:24.226Z,44.36
2022-11-20T11:42:24.221Z,50.63
2022-11-20T11:43:24.239Z,50.31
2022-11-20T11:44:24.641Z,45.43
2022-11-20T11:45:24.225Z,44.98
2022-11-20T11:46:24.197Z,45.47
2022-11-20T11:47:24.199Z,50.57
2022-11-20T11:48:24.185Z,48.65
2022-11-20T11:49:25.582Z,47.85
2022-11-20T11:50:24.179Z,48.91
2022-11-20T11:51:24.181Z,50.02
2022-11-20T11:52:24.155Z,49.44
2022-11-20T11:53:24.201Z,49.46
2022-11-20T11:54:24.169Z,48.54
2022-11-20T11:55:24.670Z,48.40
2022-11-20T11:56:24.133Z,47.33
2022-11-20T11:57:24.123Z,52.08
2022-11-20T11:58:24.129Z,56.52
2022-11-20T11:59:24.484Z,50.90
2022-11-20T12:00:24.184Z,50.17
2022-11-20T12:01:24.155Z,48.39
2022-11-20T12:02:24.170Z,48.65
2022-11-20T12:03:24.103Z,49.80
2022-11-20T12:04:24.073Z,54.95
2022-11-20T12:05:24.103Z,49.25
2022-11-20T12:06:24.069Z,56.52
2022-11-20T12:07:45.612Z,46.65
2022-11-20T12:08:25.146Z,46.56
2022-11-20T12:09:24.378Z,47.26
2022-11-20T12:10:24.893Z,60.37
2022-11-20T12:11:24.047Z,48.94
2022-11-20T12:12:24.023Z,45.64
2022-11-20T12:13:24.047Z,45.23
2022-11-20T12:14:24.044Z,45.30
2022-11-20T12:15:24.068Z,45.05
2022-11-20T12:16:24.014Z,44.94
2022-11-20T12:17:24.010Z,46.03
2022-11-20T12:18:23.998Z,51.38
2022-11-20T12:19:24.268Z,45.27
2022-11-20T12:20:24.029Z,44.57
2022-11-20T12:21:23.979Z,44.74
2022-11-20T12:22:24.104Z,44.64
2022-11-20T12:23:23.977Z,44.31
2022-11-20T12:24:23.937Z,44.69
2022-11-20T12:25:24.560Z,45.19
2022-11-20T12:26:23.949Z,53.57
2022-11-20T12:27:23.942Z,45.49
2022-11-20T12:28:23.963Z,44.72
2022-11-20T12:29:24.374Z,45.82
2022-11-20T12:30:23.904Z,46.51
2022-11-20T12:31:23.917Z,48.34
2022-11-20T12:32:23.895Z,45.25
2022-11-20T12:33:23.890Z,47.15
2022-11-20T12:34:23.876Z,47.79
2022-11-20T12:35:23.901Z,45.68
2022-11-20T12:36:23.871Z,44.95
2022-11-20T12:37:23.880Z,44.95
2022-11-20T12:38:23.859Z,45.04
2022-11-20T12:39:24.321Z,44.78
2022-11-20T12:40:23.852Z,50.36
2022-11-20T12:41:23.835Z,47.06
2022-11-20T12:42:23.824Z,44.95
2022-11-20T12:43:23.837Z,45.14
2022-11-20T12:44:24.609Z,45.59
2022-11-20T12:45:23.823Z,45.93
2022-11-20T12:46:23.811Z,45.09
2022-11-20T12:47:23.818Z,46.30
2022-11-20T12:48:24.229Z,45.83
2022-11-20T12:49:24.114Z,45.35
2022-11-20T12:50:23.855Z,44.65
2022-11-20T12:51:23.789Z,45.81
2022-11-20T12:52:23.764Z,47.36